sensor_id;sensor_type;location;lat;lon;timestamp;pressure;altitude;pressure_sealevel;temperature;humidity
7834;BME280;3962;42.696;23.354;2023-07-29T00:00:04;95052.94;;;19.42;63.26
7834;BME280;3962;42.696;23.354;2023-07-29T00:02:32;95064.75;;;19.28;63.54
7834;BME280;3962;42.696;23.354;2023-07-29T00:04:59;95065.16;;;19.25;64.02
7834;BME280;3962;42.696;23.354;2023-07-29T00:07:25;95064.75;;;19.28;64.06
7834;BME280;3962;42.696;23.354;2023-07-29T00:09:53;95066.00;;;19.32;63.59
7834;BME280;3962;42.696;23.354;2023-07-29T00:12:19;95067.66;;;19.33;63.80
7834;BME280;3962;42.696;23.354;2023-07-29T00:14:48;95063.50;;;19.30;63.98
7834;BME280;3962;42.696;23.354;2023-07-29T00:17:14;95069.94;;;19.29;64.07
7834;BME280;3962;42.696;23.354;2023-07-29T00:19:41;95057.63;;;19.14;64.15
7834;BME280;3962;42.696;23.354;2023-07-29T00:22:08;95060.41;;;19.20;63.53
7834;BME280;3962;42.696;23.354;2023-07-29T00:24:35;95055.19;;;19.25;63.65
7834;BME280;3962;42.696;23.354;2023-07-29T00:27:01;95058.34;;;19.35;63.72
7834;BME280;3962;42.696;23.354;2023-07-29T00:29:28;95070.16;;;19.34;63.00
7834;BME280;3962;42.696;23.354;2023-07-29T00:31:56;95056.66;;;19.21;63.65
7834;BME280;3962;42.696;23.354;2023-07-29T00:34:23;95048.31;;;19.16;63.91
7834;BME280;3962;42.696;23.354;2023-07-29T00:36:50;95054.13;;;19.13;63.78
7834;BME280;3962;42.696;23.354;2023-07-29T00:39:17;95052.84;;;19.09;64.29
7834;BME280;3962;42.696;23.354;2023-07-29T00:41:44;95042.25;;;19.01;63.93
7834;BME280;3962;42.696;23.354;2023-07-29T00:44:11;95049.09;;;19.04;64.13
7834;BME280;3962;42.696;23.354;2023-07-29T00:46:39;95048.06;;;18.98;64.53
7834;BME280;3962;42.696;23.354;2023-07-29T00:49:08;95044.34;;;19.06;64.32
7834;BME280;3962;42.696;23.354;2023-07-29T00:51:35;95040.81;;;19.05;64.17
7834;BME280;3962;42.696;23.354;2023-07-29T00:54:02;95038.31;;;19.04;64.25
7834;BME280;3962;42.696;23.354;2023-07-29T00:56:29;95036.25;;;19.06;64.43
7834;BME280;3962;42.696;23.354;2023-07-29T00:58:56;95049.97;;;19.11;64.04
7834;BME280;3962;42.696;23.354;2023-07-29T01:01:27;95048.06;;;19.05;64.76
7834;BME280;3962;42.696;23.354;2023-07-29T01:03:54;95041.41;;;18.88;64.76
7834;BME280;3962;42.696;23.354;2023-07-29T01:06:27;95035.38;;;18.86;65.07
7834;BME280;3962;42.696;23.354;2023-07-29T01:09:00;95041.16;;;18.70;65.58
7834;BME280;3962;42.696;23.354;2023-07-29T01:11:35;95033.00;;;18.64;65.84
7834;BME280;3962;42.696;23.354;2023-07-29T01:14:10;95033.00;;;18.57;66.00
7834;BME280;3962;42.696;23.354;2023-07-29T01:16:42;95042.13;;;18.56;66.24
7834;BME280;3962;42.696;23.354;2023-07-29T01:19:24;95036.28;;;18.46;66.30
7834;BME280;3962;42.696;23.354;2023-07-29T01:21:57;95041.63;;;18.40;66.79
7834;BME280;3962;42.696;23.354;2023-07-29T01:24:26;95042.72;;;18.45;66.61
7834;BME280;3962;42.696;23.354;2023-07-29T01:26:53;95045.81;;;18.49;66.33
7834;BME280;3962;42.696;23.354;2023-07-29T01:29:19;95042.66;;;18.39;67.04
7834;BME280;3962;42.696;23.354;2023-07-29T01:31:48;95032.91;;;18.38;66.96
7834;BME280;3962;42.696;23.354;2023-07-29T01:34:26;95040.22;;;18.50;66.49
7834;BME280;3962;42.696;23.354;2023-07-29T01:36:54;95039.00;;;18.59;66.43
7834;BME280;3962;42.696;23.354;2023-07-29T01:39:26;95038.41;;;18.64;66.25
7834;BME280;3962;42.696;23.354;2023-07-29T01:41:55;95036.38;;;18.72;65.79
7834;BME280;3962;42.696;23.354;2023-07-29T01:44:22;95032.63;;;18.73;65.65
7834;BME280;3962;42.696;23.354;2023-07-29T01:46:49;95040.53;;;18.75;65.75
7834;BME280;3962;42.696;23.354;2023-07-29T01:49:16;95044.47;;;18.78;65.64
7834;BME280;3962;42.696;23.354;2023-07-29T01:51:43;95041.78;;;18.78;65.95
7834;BME280;3962;42.696;23.354;2023-07-29T01:54:10;95039.50;;;18.76;65.50
7834;BME280;3962;42.696;23.354;2023-07-29T01:56:38;95035.75;;;18.70;65.87
7834;BME280;3962;42.696;23.354;2023-07-29T01:59:05;95040.50;;;18.68;66.35
7834;BME280;3962;42.696;23.354;2023-07-29T02:01:31;95039.22;;;18.58;66.74
7834;BME280;3962;42.696;23.354;2023-07-29T02:03:58;95042.75;;;18.58;67.05
7834;BME280;3962;42.696;23.354;2023-07-29T02:06:25;95053.31;;;18.53;67.24
7834;BME280;3962;42.696;23.354;2023-07-29T02:08:53;95041.44;;;18.48;67.33
7834;BME280;3962;42.696;23.354;2023-07-29T02:11:22;95040.81;;;18.46;67.45
7834;BME280;3962;42.696;23.354;2023-07-29T02:13:54;95045.41;;;18.45;67.77
7834;BME280;3962;42.696;23.354;2023-07-29T02:16:21;95043.09;;;18.42;67.68
7834;BME280;3962;42.696;23.354;2023-07-29T02:18:49;95049.75;;;18.46;67.30
7834;BME280;3962;42.696;23.354;2023-07-29T02:21:16;95051.78;;;18.44;67.53
7834;BME280;3962;42.696;23.354;2023-07-29T02:23:43;95055.34;;;18.45;67.52
7834;BME280;3962;42.696;23.354;2023-07-29T02:26:09;95049.94;;;18.45;67.52
7834;BME280;3962;42.696;23.354;2023-07-29T02:28:36;95048.66;;;18.41;67.96
7834;BME280;3962;42.696;23.354;2023-07-29T02:31:14;95047.22;;;18.38;67.68
7834;BME280;3962;42.696;23.354;2023-07-29T02:33:42;95041.53;;;18.27;68.08
7834;BME280;3962;42.696;23.354;2023-07-29T02:36:11;95046.00;;;18.13;68.85
7834;BME280;3962;42.696;23.354;2023-07-29T02:38:38;95050.16;;;18.16;68.80
7834;BME280;3962;42.696;23.354;2023-07-29T02:41:05;95047.88;;;18.13;68.72
7834;BME280;3962;42.696;23.354;2023-07-29T02:43:32;95050.13;;;18.09;69.45
7834;BME280;3962;42.696;23.354;2023-07-29T02:45:58;95050.56;;;18.13;69.57
7834;BME280;3962;42.696;23.354;2023-07-29T02:48:27;95044.94;;;18.08;69.56
7834;BME280;3962;42.696;23.354;2023-07-29T02:50:54;95055.50;;;18.03;69.85
7834;BME280;3962;42.696;23.354;2023-07-29T02:53:21;95060.44;;;17.99;70.40
7834;BME280;3962;42.696;23.354;2023-07-29T02:55:48;95050.91;;;17.97;70.73
7834;BME280;3962;42.696;23.354;2023-07-29T02:58:15;95058.56;;;18.00;70.47
7834;BME280;3962;42.696;23.354;2023-07-29T03:00:42;95052.75;;;17.96;70.22
7834;BME280;3962;42.696;23.354;2023-07-29T03:03:09;95053.94;;;17.87;70.41
7834;BME280;3962;42.696;23.354;2023-07-29T03:05:37;95063.63;;;17.82;70.56
7834;BME280;3962;42.696;23.354;2023-07-29T03:08:04;95058.25;;;17.82;70.07
7834;BME280;3962;42.696;23.354;2023-07-29T03:10:31;95064.63;;;17.74;69.96
7834;BME280;3962;42.696;23.354;2023-07-29T03:12:57;95065.97;;;17.64;70.18
7834;BME280;3962;42.696;23.354;2023-07-29T03:15:24;95070.28;;;17.58;69.97
7834;BME280;3962;42.696;23.354;2023-07-29T03:17:52;95070.63;;;17.49;69.91
7834;BME280;3962;42.696;23.354;2023-07-29T03:20:19;95070.94;;;17.39;70.33
7834;BME280;3962;42.696;23.354;2023-07-29T03:22:47;95069.47;;;17.37;70.22
7834;BME280;3962;42.696;23.354;2023-07-29T03:25:15;95069.63;;;17.35;70.41
7834;BME280;3962;42.696;23.354;2023-07-29T03:27:42;95071.34;;;17.36;70.52
7834;BME280;3962;42.696;23.354;2023-07-29T03:30:09;95072.31;;;17.35;70.42
7834;BME280;3962;42.696;23.354;2023-07-29T03:32:43;95072.91;;;17.31;70.66
7834;BME280;3962;42.696;23.354;2023-07-29T03:35:11;95071.03;;;17.31;70.76
7834;BME280;3962;42.696;23.354;2023-07-29T03:37:37;95077.91;;;17.34;70.87
7834;BME280;3962;42.696;23.354;2023-07-29T03:40:07;95078.72;;;17.34;70.82
7834;BME280;3962;42.696;23.354;2023-07-29T03:42:34;95075.19;;;17.34;70.63
7834;BME280;3962;42.696;23.354;2023-07-29T03:45:01;95076.41;;;17.31;70.51
7834;BME280;3962;42.696;23.354;2023-07-29T03:47:28;95074.94;;;17.29;70.74
7834;BME280;3962;42.696;23.354;2023-07-29T03:49:54;95073.28;;;17.28;70.89
7834;BME280;3962;42.696;23.354;2023-07-29T03:52:21;95086.28;;;17.24;71.11
7834;BME280;3962;42.696;23.354;2023-07-29T03:54:48;95078.38;;;17.23;71.11
7834;BME280;3962;42.696;23.354;2023-07-29T03:57:16;95077.88;;;17.13;71.63
7834;BME280;3962;42.696;23.354;2023-07-29T03:59:43;95069.81;;;17.13;71.43
7834;BME280;3962;42.696;23.354;2023-07-29T04:02:10;95074.03;;;17.22;71.77
7834;BME280;3962;42.696;23.354;2023-07-29T04:04:37;95075.78;;;17.29;71.38
7834;BME280;3962;42.696;23.354;2023-07-29T04:07:05;95079.72;;;17.33;71.21
7834;BME280;3962;42.696;23.354;2023-07-29T04:09:32;95078.41;;;17.44;71.25
7834;BME280;3962;42.696;23.354;2023-07-29T04:11:59;95079.56;;;17.56;70.51
7834;BME280;3962;42.696;23.354;2023-07-29T04:14:27;95091.41;;;17.61;70.35
7834;BME280;3962;42.696;23.354;2023-07-29T04:16:53;95081.06;;;17.37;71.10
7834;BME280;3962;42.696;23.354;2023-07-29T04:19:20;95085.13;;;17.33;71.09
7834;BME280;3962;42.696;23.354;2023-07-29T04:21:47;95082.91;;;17.58;71.18
7834;BME280;3962;42.696;23.354;2023-07-29T04:24:16;95078.56;;;17.84;69.92
7834;BME280;3962;42.696;23.354;2023-07-29T04:26:43;95082.59;;;18.01;69.34
7834;BME280;3962;42.696;23.354;2023-07-29T04:29:10;95088.72;;;18.16;68.84
7834;BME280;3962;42.696;23.354;2023-07-29T04:31:38;95072.38;;;18.18;68.24
7834;BME280;3962;42.696;23.354;2023-07-29T04:34:05;95078.47;;;18.33;68.24
7834;BME280;3962;42.696;23.354;2023-07-29T04:36:32;95076.44;;;18.41;68.13
7834;BME280;3962;42.696;23.354;2023-07-29T04:38:58;95076.91;;;18.51;67.63
7834;BME280;3962;42.696;23.354;2023-07-29T04:41:25;95087.94;;;18.56;67.84
7834;BME280;3962;42.696;23.354;2023-07-29T04:43:52;95086.44;;;18.47;67.62
7834;BME280;3962;42.696;23.354;2023-07-29T04:46:19;95087.94;;;18.63;67.42
7834;BME280;3962;42.696;23.354;2023-07-29T04:48:47;95083.22;;;18.71;66.87
7834;BME280;3962;42.696;23.354;2023-07-29T04:51:14;95083.06;;;18.79;66.65
7834;BME280;3962;42.696;23.354;2023-07-29T04:53:41;95092.84;;;18.93;66.51
7834;BME280;3962;42.696;23.354;2023-07-29T04:56:07;95093.53;;;19.08;66.04
7834;BME280;3962;42.696;23.354;2023-07-29T04:58:34;95102.84;;;19.12;65.50
7834;BME280;3962;42.696;23.354;2023-07-29T05:01:01;95111.22;;;19.23;65.37
7834;BME280;3962;42.696;23.354;2023-07-29T05:03:28;95103.38;;;19.28;64.94
7834;BME280;3962;42.696;23.354;2023-07-29T05:05:58;95113.50;;;19.26;65.08
7834;BME280;3962;42.696;23.354;2023-07-29T05:08:25;95108.94;;;19.27;64.93
7834;BME280;3962;42.696;23.354;2023-07-29T05:10:52;95108.34;;;19.25;65.01
7834;BME280;3962;42.696;23.354;2023-07-29T05:13:22;95112.50;;;19.40;64.46
7834;BME280;3962;42.696;23.354;2023-07-29T05:15:49;95109.41;;;19.50;64.16
7834;BME280;3962;42.696;23.354;2023-07-29T05:18:19;95109.22;;;19.58;63.86
7834;BME280;3962;42.696;23.354;2023-07-29T05:20:46;95110.25;;;19.63;63.84
7834;BME280;3962;42.696;23.354;2023-07-29T05:23:15;95114.00;;;19.62;63.79
7834;BME280;3962;42.696;23.354;2023-07-29T05:25:41;95112.34;;;19.81;63.68
7834;BME280;3962;42.696;23.354;2023-07-29T05:28:08;95115.47;;;19.91;62.55
7834;BME280;3962;42.696;23.354;2023-07-29T05:30:35;95118.56;;;20.01;63.04
7834;BME280;3962;42.696;23.354;2023-07-29T05:33:03;95111.31;;;20.01;62.46
7834;BME280;3962;42.696;23.354;2023-07-29T05:35:29;95117.50;;;20.02;62.68
7834;BME280;3962;42.696;23.354;2023-07-29T05:37:56;95118.59;;;20.27;62.15
7834;BME280;3962;42.696;23.354;2023-07-29T05:40:24;95121.69;;;20.37;61.56
7834;BME280;3962;42.696;23.354;2023-07-29T05:42:51;95118.31;;;20.48;61.51
7834;BME280;3962;42.696;23.354;2023-07-29T05:45:18;95125.16;;;20.63;61.08
7834;BME280;3962;42.696;23.354;2023-07-29T05:47:45;95123.50;;;20.62;60.67
7834;BME280;3962;42.696;23.354;2023-07-29T05:50:13;95122.88;;;20.60;60.40
7834;BME280;3962;42.696;23.354;2023-07-29T05:52:39;95125.34;;;20.68;60.49
7834;BME280;3962;42.696;23.354;2023-07-29T05:55:07;95121.63;;;20.69;60.42
7834;BME280;3962;42.696;23.354;2023-07-29T05:57:36;95119.50;;;20.78;60.17
7834;BME280;3962;42.696;23.354;2023-07-29T06:00:03;95122.41;;;20.89;59.68
7834;BME280;3962;42.696;23.354;2023-07-29T06:02:30;95116.56;;;20.92;59.42
7834;BME280;3962;42.696;23.354;2023-07-29T06:04:57;95120.31;;;20.91;59.39
7834;BME280;3962;42.696;23.354;2023-07-29T06:07:24;95123.16;;;21.03;59.84
7834;BME280;3962;42.696;23.354;2023-07-29T06:09:55;95120.47;;;21.09;59.13
7834;BME280;3962;42.696;23.354;2023-07-29T06:12:21;95119.81;;;21.14;59.01
7834;BME280;3962;42.696;23.354;2023-07-29T06:14:50;95113.66;;;21.38;58.94
7834;BME280;3962;42.696;23.354;2023-07-29T06:17:16;95117.16;;;21.45;58.42
7834;BME280;3962;42.696;23.354;2023-07-29T06:19:43;95119.88;;;21.38;58.56
7834;BME280;3962;42.696;23.354;2023-07-29T06:22:10;95116.78;;;21.35;58.48
7834;BME280;3962;42.696;23.354;2023-07-29T06:24:37;95110.81;;;21.57;58.71
7834;BME280;3962;42.696;23.354;2023-07-29T06:27:04;95112.28;;;21.53;58.83
7834;BME280;3962;42.696;23.354;2023-07-29T06:29:31;95117.09;;;21.51;58.85
7834;BME280;3962;42.696;23.354;2023-07-29T06:31:59;95105.16;;;21.59;58.46
7834;BME280;3962;42.696;23.354;2023-07-29T06:34:26;95103.84;;;21.74;58.13
7834;BME280;3962;42.696;23.354;2023-07-29T06:36:53;95106.75;;;22.04;57.84
7834;BME280;3962;42.696;23.354;2023-07-29T06:39:20;95106.47;;;22.12;57.70
7834;BME280;3962;42.696;23.354;2023-07-29T06:41:48;95101.16;;;22.23;57.43
7834;BME280;3962;42.696;23.354;2023-07-29T06:44:16;95100.66;;;22.33;56.43
7834;BME280;3962;42.696;23.354;2023-07-29T06:46:42;95098.66;;;22.46;56.60
7834;BME280;3962;42.696;23.354;2023-07-29T06:49:10;95091.00;;;22.61;56.19
7834;BME280;3962;42.696;23.354;2023-07-29T06:51:37;95089.34;;;22.60;55.94
7834;BME280;3962;42.696;23.354;2023-07-29T06:54:04;95090.56;;;22.82;55.85
7834;BME280;3962;42.696;23.354;2023-07-29T06:56:31;95096.94;;;23.05;55.32
7834;BME280;3962;42.696;23.354;2023-07-29T06:58:58;95092.72;;;23.09;54.10
7834;BME280;3962;42.696;23.354;2023-07-29T07:01:25;95096.56;;;23.20;53.74
7834;BME280;3962;42.696;23.354;2023-07-29T07:03:51;95103.28;;;23.35;53.38
7834;BME280;3962;42.696;23.354;2023-07-29T07:06:22;95102.41;;;23.53;53.02
7834;BME280;3962;42.696;23.354;2023-07-29T07:08:50;95112.03;;;23.78;52.57
7834;BME280;3962;42.696;23.354;2023-07-29T07:11:17;95098.69;;;24.18;51.74
7834;BME280;3962;42.696;23.354;2023-07-29T07:13:44;95106.28;;;24.85;49.88
7834;BME280;3962;42.696;23.354;2023-07-29T07:16:11;95106.22;;;26.48;47.09
7834;BME280;3962;42.696;23.354;2023-07-29T07:18:38;95113.66;;;27.66;44.11
7834;BME280;3962;42.696;23.354;2023-07-29T07:21:04;95112.66;;;28.51;41.98
7834;BME280;3962;42.696;23.354;2023-07-29T07:23:33;95112.22;;;29.01;41.05
7834;BME280;3962;42.696;23.354;2023-07-29T07:25:59;95106.19;;;29.04;40.65
7834;BME280;3962;42.696;23.354;2023-07-29T07:28:26;95110.91;;;29.65;39.94
7834;BME280;3962;42.696;23.354;2023-07-29T07:30:53;95102.81;;;30.05;38.85
7834;BME280;3962;42.696;23.354;2023-07-29T07:33:21;95104.25;;;30.32;38.33
7834;BME280;3962;42.696;23.354;2023-07-29T07:35:48;95102.03;;;30.44;38.32
7834;BME280;3962;42.696;23.354;2023-07-29T07:38:14;95106.19;;;30.57;37.55
7834;BME280;3962;42.696;23.354;2023-07-29T07:40:43;95104.50;;;31.11;37.71
7834;BME280;3962;42.696;23.354;2023-07-29T07:43:18;95100.41;;;31.03;37.03
7834;BME280;3962;42.696;23.354;2023-07-29T07:45:45;95101.47;;;31.07;36.24
7834;BME280;3962;42.696;23.354;2023-07-29T07:48:12;95103.16;;;30.88;36.49
7834;BME280;3962;42.696;23.354;2023-07-29T07:50:39;95107.25;;;30.96;36.78
7834;BME280;3962;42.696;23.354;2023-07-29T07:53:06;95103.69;;;31.20;36.35
7834;BME280;3962;42.696;23.354;2023-07-29T07:55:33;95108.34;;;31.15;35.99
7834;BME280;3962;42.696;23.354;2023-07-29T07:58:01;95108.66;;;30.93;36.17
7834;BME280;3962;42.696;23.354;2023-07-29T08:00:28;95104.84;;;30.64;36.79
7834;BME280;3962;42.696;23.354;2023-07-29T08:02:54;95107.81;;;31.03;36.58
7834;BME280;3962;42.696;23.354;2023-07-29T08:05:21;95111.53;;;31.67;35.36
7834;BME280;3962;42.696;23.354;2023-07-29T08:07:48;95109.09;;;31.55;35.07
7834;BME280;3962;42.696;23.354;2023-07-29T08:10:15;95104.53;;;31.01;35.95
7834;BME280;3962;42.696;23.354;2023-07-29T08:12:42;95106.47;;;30.95;35.57
7834;BME280;3962;42.696;23.354;2023-07-29T08:15:10;95113.31;;;31.18;35.89
7834;BME280;3962;42.696;23.354;2023-07-29T08:17:37;95107.28;;;31.21;36.26
7834;BME280;3962;42.696;23.354;2023-07-29T08:20:05;95108.63;;;31.28;36.52
7834;BME280;3962;42.696;23.354;2023-07-29T08:22:32;95107.59;;;31.88;35.68
7834;BME280;3962;42.696;23.354;2023-07-29T08:24:59;95118.13;;;32.29;34.66
7834;BME280;3962;42.696;23.354;2023-07-29T08:27:25;95112.94;;;32.17;34.29
7834;BME280;3962;42.696;23.354;2023-07-29T08:29:53;95104.88;;;31.83;34.26
7834;BME280;3962;42.696;23.354;2023-07-29T08:32:22;95095.88;;;31.57;34.98
7834;BME280;3962;42.696;23.354;2023-07-29T08:34:49;95093.91;;;31.73;35.22
7834;BME280;3962;42.696;23.354;2023-07-29T08:37:16;95103.63;;;32.08;34.67
7834;BME280;3962;42.696;23.354;2023-07-29T08:39:43;95090.97;;;31.49;35.84
7834;BME280;3962;42.696;23.354;2023-07-29T08:42:11;95094.19;;;31.61;33.87
7834;BME280;3962;42.696;23.354;2023-07-29T08:44:41;95097.34;;;31.15;35.53
7834;BME280;3962;42.696;23.354;2023-07-29T08:47:08;95074.91;;;30.68;35.65
7834;BME280;3962;42.696;23.354;2023-07-29T08:49:37;95079.84;;;30.66;35.98
7834;BME280;3962;42.696;23.354;2023-07-29T08:52:05;95079.28;;;30.69;35.85
7834;BME280;3962;42.696;23.354;2023-07-29T08:54:33;95071.03;;;30.44;35.85
7834;BME280;3962;42.696;23.354;2023-07-29T08:57:00;95072.38;;;30.36;35.77
7834;BME280;3962;42.696;23.354;2023-07-29T08:59:28;95074.59;;;30.74;35.08
7834;BME280;3962;42.696;23.354;2023-07-29T09:01:56;95071.03;;;30.84;35.00
7834;BME280;3962;42.696;23.354;2023-07-29T09:04:23;95066.63;;;30.83;33.27
7834;BME280;3962;42.696;23.354;2023-07-29T09:06:53;95072.66;;;31.00;33.62
7834;BME280;3962;42.696;23.354;2023-07-29T09:09:20;95066.88;;;31.16;32.51
7834;BME280;3962;42.696;23.354;2023-07-29T09:11:47;95059.69;;;31.15;32.06
7834;BME280;3962;42.696;23.354;2023-07-29T09:14:14;95059.59;;;31.55;32.75
7834;BME280;3962;42.696;23.354;2023-07-29T09:16:41;95057.66;;;31.51;31.84
7834;BME280;3962;42.696;23.354;2023-07-29T09:19:08;95056.91;;;31.30;31.04
7834;BME280;3962;42.696;23.354;2023-07-29T09:21:38;95059.91;;;31.39;32.29
7834;BME280;3962;42.696;23.354;2023-07-29T09:24:07;95054.69;;;31.42;32.06
7834;BME280;3962;42.696;23.354;2023-07-29T09:26:34;95056.69;;;31.22;32.87
7834;BME280;3962;42.696;23.354;2023-07-29T09:29:02;95052.94;;;31.61;32.10
7834;BME280;3962;42.696;23.354;2023-07-29T09:31:29;95053.97;;;31.80;32.26
7834;BME280;3962;42.696;23.354;2023-07-29T09:33:57;95047.53;;;31.41;32.70
7834;BME280;3962;42.696;23.354;2023-07-29T09:36:24;95040.16;;;31.32;32.44
7834;BME280;3962;42.696;23.354;2023-07-29T09:38:55;95039.66;;;31.20;32.24
7834;BME280;3962;42.696;23.354;2023-07-29T09:41:24;95038.50;;;31.36;31.88
7834;BME280;3962;42.696;23.354;2023-07-29T09:43:56;95040.81;;;31.72;31.62
7834;BME280;3962;42.696;23.354;2023-07-29T09:46:25;95025.47;;;31.51;32.52
7834;BME280;3962;42.696;23.354;2023-07-29T09:48:58;95032.78;;;31.81;31.68
7834;BME280;3962;42.696;23.354;2023-07-29T09:51:25;95035.47;;;31.91;29.89
7834;BME280;3962;42.696;23.354;2023-07-29T09:53:52;95032.72;;;31.91;30.31
7834;BME280;3962;42.696;23.354;2023-07-29T09:56:26;95027.94;;;32.06;30.00
7834;BME280;3962;42.696;23.354;2023-07-29T09:58:55;95020.88;;;31.95;30.38
7834;BME280;3962;42.696;23.354;2023-07-29T10:01:23;95026.47;;;32.18;30.05
7834;BME280;3962;42.696;23.354;2023-07-29T10:03:50;95034.38;;;32.35;30.02
7834;BME280;3962;42.696;23.354;2023-07-29T10:06:17;95027.00;;;32.25;30.18
7834;BME280;3962;42.696;23.354;2023-07-29T10:08:47;95019.03;;;32.19;29.34
7834;BME280;3962;42.696;23.354;2023-07-29T10:11:15;95016.53;;;31.84;30.41
7834;BME280;3962;42.696;23.354;2023-07-29T10:13:47;95011.28;;;31.34;31.12
7834;BME280;3962;42.696;23.354;2023-07-29T10:16:14;95007.03;;;31.57;31.39
7834;BME280;3962;42.696;23.354;2023-07-29T10:18:42;95009.09;;;31.85;31.11
7834;BME280;3962;42.696;23.354;2023-07-29T10:21:11;94995.97;;;31.72;31.23
7834;BME280;3962;42.696;23.354;2023-07-29T10:23:42;95002.22;;;31.82;31.75
7834;BME280;3962;42.696;23.354;2023-07-29T10:26:11;95001.19;;;31.68;31.36
7834;BME280;3962;42.696;23.354;2023-07-29T10:28:41;94988.81;;;31.71;31.45
7834;BME280;3962;42.696;23.354;2023-07-29T10:31:11;94990.00;;;31.50;30.78
7834;BME280;3962;42.696;23.354;2023-07-29T10:33:39;94979.72;;;31.17;31.45
7834;BME280;3962;42.696;23.354;2023-07-29T10:36:06;94979.44;;;31.18;31.12
7834;BME280;3962;42.696;23.354;2023-07-29T10:38:35;94972.59;;;31.64;30.59
7834;BME280;3962;42.696;23.354;2023-07-29T10:41:02;94967.22;;;31.93;29.80
7834;BME280;3962;42.696;23.354;2023-07-29T10:43:32;94975.00;;;31.81;30.68
7834;BME280;3962;42.696;23.354;2023-07-29T10:46:16;94972.31;;;31.17;30.48
7834;BME280;3962;42.696;23.354;2023-07-29T10:48:44;94967.25;;;31.39;30.35
7834;BME280;3962;42.696;23.354;2023-07-29T10:51:25;94961.81;;;31.78;29.89
7834;BME280;3962;42.696;23.354;2023-07-29T10:53:56;94958.44;;;31.91;30.38
7834;BME280;3962;42.696;23.354;2023-07-29T10:56:30;94955.63;;;31.96;28.66
7834;BME280;3962;42.696;23.354;2023-07-29T10:59:00;94954.59;;;31.87;29.33
7834;BME280;3962;42.696;23.354;2023-07-29T11:01:30;94961.00;;;32.10;29.82
7834;BME280;3962;42.696;23.354;2023-07-29T11:04:25;94942.22;;;31.84;28.90
7834;BME280;3962;42.696;23.354;2023-07-29T11:07:21;94942.31;;;31.74;29.05
7834;BME280;3962;42.696;23.354;2023-07-29T11:10:02;94945.22;;;31.88;29.69
7834;BME280;3962;42.696;23.354;2023-07-29T11:12:40;94940.28;;;31.41;29.72
7834;BME280;3962;42.696;23.354;2023-07-29T11:15:18;94946.81;;;31.55;29.38
7834;BME280;3962;42.696;23.354;2023-07-29T11:17:48;94942.56;;;31.78;29.11
7834;BME280;3962;42.696;23.354;2023-07-29T11:20:16;94939.88;;;32.01;29.54
7834;BME280;3962;42.696;23.354;2023-07-29T11:22:43;94938.72;;;32.45;28.59
7834;BME280;3962;42.696;23.354;2023-07-29T11:25:11;94938.91;;;32.49;28.71
7834;BME280;3962;42.696;23.354;2023-07-29T11:27:39;94936.00;;;32.64;28.73
7834;BME280;3962;42.696;23.354;2023-07-29T11:30:07;94934.34;;;32.39;28.13
7834;BME280;3962;42.696;23.354;2023-07-29T11:32:35;94941.63;;;32.54;28.76
7834;BME280;3962;42.696;23.354;2023-07-29T11:35:05;94934.47;;;33.05;27.52
7834;BME280;3962;42.696;23.354;2023-07-29T11:37:33;94940.66;;;32.97;28.64
7834;BME280;3962;42.696;23.354;2023-07-29T11:40:00;94928.38;;;33.08;28.17
7834;BME280;3962;42.696;23.354;2023-07-29T11:42:27;94933.53;;;32.91;26.67
7834;BME280;3962;42.696;23.354;2023-07-29T11:44:56;94928.03;;;32.91;27.18
7834;BME280;3962;42.696;23.354;2023-07-29T11:47:24;94927.28;;;33.04;27.61
7834;BME280;3962;42.696;23.354;2023-07-29T11:49:51;94921.28;;;33.25;27.82
7834;BME280;3962;42.696;23.354;2023-07-29T11:52:19;94919.03;;;33.27;27.14
7834;BME280;3962;42.696;23.354;2023-07-29T11:54:48;94922.72;;;33.18;26.15
7834;BME280;3962;42.696;23.354;2023-07-29T11:57:16;94921.22;;;33.07;26.78
7834;BME280;3962;42.696;23.354;2023-07-29T11:59:44;94919.56;;;32.82;26.77
7834;BME280;3962;42.696;23.354;2023-07-29T12:02:14;94916.41;;;33.17;27.57
7834;BME280;3962;42.696;23.354;2023-07-29T12:04:43;94907.56;;;33.15;27.39
7834;BME280;3962;42.696;23.354;2023-07-29T12:07:12;94911.16;;;33.16;27.87
7834;BME280;3962;42.696;23.354;2023-07-29T12:09:42;94907.50;;;33.44;27.51
7834;BME280;3962;42.696;23.354;2023-07-29T12:12:09;94895.44;;;33.58;27.24
7834;BME280;3962;42.696;23.354;2023-07-29T12:14:36;94896.53;;;33.57;27.65
7834;BME280;3962;42.696;23.354;2023-07-29T12:17:04;94904.16;;;33.47;27.38
7834;BME280;3962;42.696;23.354;2023-07-29T12:19:32;94903.13;;;33.80;27.38
7834;BME280;3962;42.696;23.354;2023-07-29T12:22:00;94892.44;;;33.73;27.23
7834;BME280;3962;42.696;23.354;2023-07-29T12:24:27;94896.34;;;33.91;27.80
7834;BME280;3962;42.696;23.354;2023-07-29T12:26:57;94885.72;;;33.42;27.68
7834;BME280;3962;42.696;23.354;2023-07-29T12:29:24;94886.84;;;33.41;27.84
7834;BME280;3962;42.696;23.354;2023-07-29T12:31:57;94885.22;;;33.40;27.97
7834;BME280;3962;42.696;23.354;2023-07-29T12:34:26;94895.50;;;33.11;26.65
7834;BME280;3962;42.696;23.354;2023-07-29T12:36:54;94895.25;;;32.89;27.68
7834;BME280;3962;42.696;23.354;2023-07-29T12:39:22;94883.56;;;33.39;26.92
7834;BME280;3962;42.696;23.354;2023-07-29T12:41:51;94887.31;;;33.48;27.04
7834;BME280;3962;42.696;23.354;2023-07-29T12:44:19;94878.31;;;33.19;27.72
7834;BME280;3962;42.696;23.354;2023-07-29T12:46:48;94886.19;;;33.31;27.67
7834;BME280;3962;42.696;23.354;2023-07-29T12:49:16;94884.72;;;33.70;27.59
7834;BME280;3962;42.696;23.354;2023-07-29T12:51:43;94882.00;;;33.33;27.25
7834;BME280;3962;42.696;23.354;2023-07-29T12:54:10;94879.44;;;33.18;27.43
7834;BME280;3962;42.696;23.354;2023-07-29T12:56:36;94870.88;;;33.38;26.80
7834;BME280;3962;42.696;23.354;2023-07-29T12:59:04;94875.00;;;33.41;26.90
7834;BME280;3962;42.696;23.354;2023-07-29T13:01:33;94880.94;;;33.66;26.23
7834;BME280;3962;42.696;23.354;2023-07-29T13:03:59;94873.28;;;33.45;26.70
7834;BME280;3962;42.696;23.354;2023-07-29T13:06:26;94878.41;;;33.51;26.32
7834;BME280;3962;42.696;23.354;2023-07-29T13:08:53;94881.09;;;33.75;26.10
7834;BME280;3962;42.696;23.354;2023-07-29T13:11:20;94880.28;;;33.93;25.85
7834;BME280;3962;42.696;23.354;2023-07-29T13:13:47;94877.56;;;34.06;26.37